Time;durP1;ratioP1;P1;durP2;ratioP2;P2;SDS_P1;SDS_P2;PMS_P1;PMS_P2;Temp;Humidity;BMP_temperature;BMP_pressure;BME280_temperature;BME280_humidity;BME280_pressure;Samples;Min_cycle;Max_cycle;Signal;HPM_P1;HPM_P2
2022/08/31 00:03:55;;;;;;;;;;;;;;;;;;5054264;28;850;-74
2022/08/31 00:06:21;;;;;;;;;;;;;;;;;;5072248;28;1902;-74
2022/08/31 00:08:48;;;;;;;;;;;;;;;;;;5072090;28;1362;-74
2022/08/31 00:11:15;;;;;;;;;;;;;;;;;;5072023;28;889;-72
2022/08/31 00:13:42;;;;;;;;;;;;;;;;;;5071924;28;1064;-74
2022/08/31 00:16:08;;;;;;;;;;;;;;;;;;5054026;28;1094;-75
2022/08/31 00:18:35;;;;;;;;;;;;;;;;;;5054270;28;1478;-75
2022/08/31 00:21:01;;;;;;;;;;;;;;;;;;5071670;28;1099;-74
2022/08/31 00:23:27;;;;;;;;;;;;;;;;;;5070446;28;1331;-75
2022/08/31 00:25:53;;;;;;;;;;;;;;;;;;5071755;28;1122;-74
2022/08/31 00:28:21;;;;;;;;;;;;;;;;;;5070466;28;1914;-74
2022/08/31 00:30:47;;;;;;;;;;;;;;;;;;5054048;28;1395;-73
2022/08/31 00:33:14;;;;;;;;;;;;;;;;;;5071229;28;798;-74
2022/08/31 00:35:41;;;;;;;;;;;;;;;;;;5053825;28;1470;-74
2022/08/31 00:38:08;;;;;;;;;;;;;;;;;;5052447;28;1391;-74
2022/08/31 00:40:35;;;;;;;;;;;;;;;;;;5071578;28;1023;-75
2022/08/31 00:43:01;;;;;;;;;;;;;;;;;;5071256;28;1080;-74
2022/08/31 00:45:29;;;;;;;;;;;;;;;;;;5053611;28;1204;-73
2022/08/31 00:47:55;;;;;;;;;;;;;;;;;;5071369;28;1995;-73
2022/08/31 00:50:25;;;;;;;;;;;;;;;;;;5053425;28;1161;-74
2022/08/31 00:52:52;;;;;;;;;;;;;;;;;;5053470;28;739;-73
2022/08/31 00:55:20;;;;;;;;;;;;;;;;;;5053538;28;1298;-74
2022/08/31 00:57:48;;;;;;;;;;;;;;;;;;5071522;28;1115;-74
2022/08/31 01:00:16;;;;;;;;;;;;;;;;;;5053413;28;1365;-74
2022/08/31 01:02:43;;;;;;;;;;;;;;;;;;5053500;28;1243;-74
2022/08/31 01:05:10;;;;;;;;;;;;;;;;;;5053322;28;1161;-75
2022/08/31 01:07:37;;;;;;;;;;;;;;;;;;5053429;28;1910;-74
2022/08/31 01:10:03;;;;;;;;;;;;;;;;;;5069950;28;1325;-73
2022/08/31 01:12:30;;;;;;;;;;;;;;;;;;5071052;28;798;-74
2022/08/31 01:14:56;;;;;;;;;;;;;;;;;;5071189;28;797;-73
2022/08/31 01:17:22;;;;;;;;;;;;;;;;;;5069756;28;1443;-74
2022/08/31 01:19:52;;;;;;;;;;;;;;;;;;5069929;28;1328;-74
2022/08/31 01:22:19;;;;;;;;;;;;;;;;;;5070742;28;1123;-74
2022/08/31 01:24:46;;;;;;;;;;;;;;;;;;5052682;28;1538;-74
2022/08/31 01:27:13;;;;;;;;;;;;;;;;;;5070811;28;1914;-74
2022/08/31 01:29:40;;;;;;;;;;;;;;;;;;5053068;28;1314;-74
2022/08/31 01:32:06;;;;;;;;;;;;;;;;;;5069285;28;1257;-73
2022/08/31 01:34:33;;;;;;;;;;;;;;;;;;5071274;28;867;-74
2022/08/31 01:37:00;;;;;;;;;;;;;;;;;;5066317;22;3530;-75
2022/08/31 01:39:26;;;;;;;;;;;;;;;;;;5052789;28;1597;-75
2022/08/31 01:41:54;;;;;;;;;;;;;;;;;;5052947;28;1104;-77
2022/08/31 01:44:21;;;;;;;;;;;;;;;;;;5052674;28;1099;-76
2022/08/31 01:46:49;;;;;;;;;;;;;;;;;;5060953;28;1969;-77
2022/08/31 01:49:15;;;;;;;;;;;;;;;;;;5075697;28;1266;-76
2022/08/31 01:51:42;;;;;;;;;;;;;;;;;;5077017;28;1278;-75
2022/08/31 01:54:08;;;;;;;;;;;;;;;;;;5077075;28;1131;-75
2022/08/31 01:56:36;;;;;;;;;;;;;;;;;;5076669;28;1365;-76
2022/08/31 01:59:07;;;;;;;;;;;;;;;;;;5077000;28;1311;-75
2022/08/31 02:01:46;;;;;;;;;;;;;;;;;;5076491;28;1485;-76
2022/08/31 02:04:15;;;;;;;;;;;;;;;;;;5076776;28;1184;-76
2022/08/31 02:06:42;;;;;;;;;;;;;;;;;;5076786;28;1345;-76
2022/08/31 02:09:09;;;;;;;;;;;;;;;;;;5076799;28;2005;-76
2022/08/31 02:11:36;;;;;;;;;;;;;;;;;;5094647;28;798;-76
2022/08/31 02:14:02;;;;;;;;;;;;;;;;;;5076499;28;2463;-76
2022/08/31 02:16:30;;;;;;;;;;;;;;;;;;5076375;28;1373;-76
2022/08/31 02:18:56;;;;;;;;;;;;;;;;;;5076633;28;1515;-76
2022/08/31 02:21:23;;;;;;;;;;;;;;;;;;5076084;28;1369;-76
2022/08/31 02:23:49;;;;;;;;;;;;;;;;;;5076520;28;1274;-76
2022/08/31 02:26:16;;;;;;;;;;;;;;;;;;5076158;28;1403;-76
2022/08/31 02:28:44;;;;;;;;;;;;;;;;;;5076393;28;1914;-76
2022/08/31 02:31:11;;;;;;;;;;;;;;;;;;5076144;28;1218;-75
2022/08/31 02:33:46;;;;;;;;;;;;;;;;;;5076461;28;1714;-76
2022/08/31 02:36:13;;;;;;;;;;;;;;;;;;5076106;28;1432;-76
2022/08/31 02:38:39;;;;;;;;;;;;;;;;;;5075994;28;1328;-76
2022/08/31 02:41:05;;;;;;;;;;;;;;;;;;5076157;28;1316;-76
2022/08/31 02:43:32;;;;;;;;;;;;;;;;;;5075832;28;1191;-76
2022/08/31 02:45:58;;;;;;;;;;;;;;;;;;5094100;28;1304;-75
2022/08/31 02:48:29;;;;;;;;;;;;;;;;;;5075867;28;1913;-75
2022/08/31 02:51:02;;;;;;;;;;;;;;;;;;5075965;28;1692;-75
2022/08/31 02:53:28;;;;;;;;;;;;;;;;;;5075565;28;1174;-75
2022/08/31 02:55:55;;;;;;;;;;;;;;;;;;5075748;28;1405;-75
2022/08/31 02:58:21;;;;;;;;;;;;;;;;;;5076116;28;1216;-75
2022/08/31 03:00:47;;;;;;;;;;;;;;;;;;5074847;28;1296;-75
2022/08/31 03:03:15;;;;;;;;;;;;;;;;;;5075342;28;1221;-76
2022/08/31 03:05:43;;;;;;;;;;;;;;;;;;5075756;28;1338;-76
2022/08/31 03:08:11;;;;;;;;;;;;;;;;;;5075361;28;1985;-75
2022/08/31 03:10:37;;;;;;;;;;;;;;;;;;5075753;28;1323;-75
2022/08/31 03:13:03;;;;;;;;;;;;;;;;;;5075187;28;1314;-75
2022/08/31 03:15:30;;;;;;;;;;;;;;;;;;5075459;28;1312;-75
2022/08/31 03:17:56;;;;;;;;;;;;;;;;;;5083312;28;1475;-76
2022/08/31 03:20:24;;;;;;;;;;;;;;;;;;5096008;28;1253;-75
2022/08/31 03:22:52;;;;;;;;;;;;;;;;;;5095404;28;1300;-75
2022/08/31 03:25:20;;;;;;;;;;;;;;;;;;5095538;28;1483;-76
2022/08/31 03:27:46;;;;;;;;;;;;;;;;;;5095410;28;1963;-75
2022/08/31 03:30:14;;;;;;;;;;;;;;;;;;5095420;28;1186;-75
2022/08/31 03:32:44;;;;;;;;;;;;;;;;;;5094956;28;1532;-75
2022/08/31 03:35:11;;;;;;;;;;;;;;;;;;5095461;28;1439;-75
2022/08/31 03:37:37;;;;;;;;;;;;;;;;;;5095124;28;1600;-76
2022/08/31 03:40:04;;;;;;;;;;;;;;;;;;5095370;28;1213;-75
2022/08/31 03:42:32;;;;;;;;;;;;;;;;;;5094993;28;1681;-76
2022/08/31 03:44:59;;;;;;;;;;;;;;;;;;5095377;28;986;-75
2022/08/31 03:47:29;;;;;;;;;;;;;;;;;;5095082;28;1969;-75
2022/08/31 03:49:56;;;;;;;;;;;;;;;;;;5095325;28;1553;-77
2022/08/31 03:52:26;;;;;;;;;;;;;;;;;;5094960;28;1503;-76
2022/08/31 03:55:09;;;;;;;;;;;;;;;;;;5095303;28;1466;-74
2022/08/31 03:57:39;;;;;;;;;;;;;;;;;;5095088;28;1490;-76
2022/08/31 04:00:06;;;;;;;;;;;;;;;;;;5095017;28;1201;-75
2022/08/31 04:02:42;;;;;;;;;;;;;;;;;;5112730;28;781;-75
2022/08/31 04:05:43;;;;;;;;;;;;;;;;;;5112851;28;839;-75
2022/08/31 04:08:39;;;;;;;;;;;;;;;;;;5112745;28;1910;-75
2022/08/31 04:11:26;;;;;;;;;;;;;;;;;;5111720;28;1219;-75
2022/08/31 04:14:32;;;;;;;;;;;;;;;;;;5112538;28;1136;-76
2022/08/31 04:17:17;;;;;;;;;;;;;;;;;;5113035;28;1303;-75
2022/08/31 04:19:48;;;;;;;;;;;;;;;;;;5094410;28;1390;-77
2022/08/31 04:22:27;;;;;;;;;;;;;;;;;;5094189;28;1375;-75
2022/08/31 04:25:15;;;;;;;;;;;;;;;;;;5094401;28;1423;-75
2022/08/31 04:27:41;;;;;;;;;;;;;;;;;;5112596;28;1980;-75
2022/08/31 04:30:10;;;;;;;;;;;;;;;;;;5094473;28;1368;-75
2022/08/31 04:32:36;;;;;;;;;;;;;;;;;;5094007;28;1448;-75
2022/08/31 04:35:03;;;;;;;;;;;;;;;;;;5094670;28;1485;-75
2022/08/31 04:37:30;;;;;;;;;;;;;;;;;;5094231;28;1385;-76
2022/08/31 04:39:57;;;;;;;;;;;;;;;;;;5094321;28;1319;-75
2022/08/31 04:42:24;;;;;;;;;;;;;;;;;;5093817;28;1356;-76
2022/08/31 04:44:50;;;;;;;;;;;;;;;;;;5094045;28;1456;-76
2022/08/31 04:47:19;;;;;;;;;;;;;;;;;;5093918;28;1553;-76
2022/08/31 04:49:47;;;;;;;;;;;;;;;;;;5091856;28;1988;-76
2022/08/31 04:52:13;;;;;;;;;;;;;;;;;;5072151;28;1576;-76
2022/08/31 04:54:39;;;;;;;;;;;;;;;;;;5073560;28;1170;-76
2022/08/31 04:57:06;;;;;;;;;;;;;;;;;;5072193;28;1375;-76
2022/08/31 04:59:32;;;;;;;;;;;;;;;;;;5073453;28;1679;-76
2022/08/31 05:02:35;;;;;;;;;;;;;;;;;;5071075;28;1023;-75
2022/08/31 05:05:11;;;;;;;;;;;;;;;;;;5064613;28;1512;-75
2022/08/31 05:07:37;;;;;;;;;;;;;;;;;;5071171;28;1426;-76
2022/08/31 05:10:04;;;;;;;;;;;;;;;;;;5072819;28;1913;-76
2022/08/31 05:12:31;;;;;;;;;;;;;;;;;;5073117;28;1185;-77
2022/08/31 05:14:57;;;;;;;;;;;;;;;;;;5073451;28;1182;-76
2022/08/31 05:17:25;;;;;;;;;;;;;;;;;;5072671;28;1551;-76
2022/08/31 05:19:53;;;;;;;;;;;;;;;;;;5079245;28;1470;-76
2022/08/31 05:22:19;;;;;;;;;;;;;;;;;;5097627;28;1457;-76
2022/08/31 05:24:48;;;;;;;;;;;;;;;;;;5073109;28;1661;-76
2022/08/31 05:27:15;;;;;;;;;;;;;;;;;;5072838;28;1546;-76
2022/08/31 05:29:41;;;;;;;;;;;;;;;;;;5071664;28;1910;-76
2022/08/31 05:32:33;;;;;;;;;;;;;;;;;;5086212;28;1259;-75
2022/08/31 05:35:01;;;;;;;;;;;;;;;;;;5075586;28;1473;-76
2022/08/31 05:37:28;;;;;;;;;;;;;;;;;;5077912;28;1483;-75
2022/08/31 05:39:54;;;;;;;;;;;;;;;;;;5080370;28;1382;-76
2022/08/31 05:42:20;;;;;;;;;;;;;;;;;;5079393;28;1361;-78
2022/08/31 05:44:47;;;;;;;;;;;;;;;;;;5073135;28;1147;-76
2022/08/31 05:47:14;;;;;;;;;;;;;;;;;;5073094;28;1321;-77
2022/08/31 05:49:42;;;;;;;;;;;;;;;;;;5073187;28;1922;-76
2022/08/31 05:52:11;;;;;;;;;;;;;;;;;;5072577;28;1186;-77
2022/08/31 05:54:38;;;;;;;;;;;;;;;;;;5073375;28;1375;-76
2022/08/31 05:57:05;;;;;;;;;;;;;;;;;;5072969;28;1306;-77
2022/08/31 05:59:32;;;;;;;;;;;;;;;;;;5073157;28;1525;-76
2022/08/31 06:01:59;;;;;;;;;;;;;;;;;;5072647;28;1225;-74
2022/08/31 06:04:27;;;;;;;;;;;;;;;;;;5073042;28;1312;-74
2022/08/31 06:06:54;;;;;;;;;;;;;;;;;;5073039;28;1474;-74
2022/08/31 06:09:25;;;;;;;;;;;;;;;;;;5072761;28;1918;-75
2022/08/31 06:11:53;;;;;;;;;;;;;;;;;;5072714;28;1351;-75
2022/08/31 06:14:21;;;;;;;;;;;;;;;;;;5072909;28;1479;-74
2022/08/31 06:16:48;;;;;;;;;;;;;;;;;;5072699;28;1534;-75
2022/08/31 06:19:16;;;;;;;;;;;;;;;;;;5072836;28;1507;-75
2022/08/31 06:21:48;;;;;;;;;;;;;;;;;;5072488;28;1354;-75
2022/08/31 06:24:14;;;;;;;;;;;;;;;;;;5072694;28;1423;-75
2022/08/31 06:26:41;;;;;;;;;;;;;;;;;;5072623;28;1324;-77
2022/08/31 06:29:15;;;;;;;;;;;;;;;;;;5072662;28;2367;-77
2022/08/31 06:31:45;;;;;;;;;;;;;;;;;;5072441;28;1343;-75
2022/08/31 06:34:11;;;;;;;;;;;;;;;;;;5072787;28;1183;-75
2022/08/31 06:36:56;;;;;;;;;;;;;;;;;;5094241;28;1553;-75
2022/08/31 06:39:39;;;;;;;;;;;;;;;;;;5076255;28;1336;-75
2022/08/31 06:42:27;;;;;;;;;;;;;;;;;;5052458;28;1243;-75
2022/08/31 06:45:02;;;;;;;;;;;;;;;;;;5094484;28;838;-75
2022/08/31 06:47:42;;;;;;;;;;;;;;;;;;5076001;28;1591;-75
2022/08/31 06:50:11;;;;;;;;;;;;;;;;;;5075494;28;1926;-74
2022/08/31 06:52:37;;;;;;;;;;;;;;;;;;5066567;28;1692;-75
2022/08/31 06:55:11;;;;;;;;;;;;;;;;;;5074859;28;1502;-75
2022/08/31 06:57:57;;;;;;;;;;;;;;;;;;5093477;28;1334;-75
2022/08/31 07:00:44;;;;;;;;;;;;;;;;;;5073253;28;1198;-74
2022/08/31 07:03:32;;;;;;;;;;;;;;;;;;5072850;28;709;-75
2022/08/31 07:06:03;;;;;;;;;;;;;;;;;;5073626;28;1284;-74
2022/08/31 07:08:30;;;;;;;;;;;;;;;;;;5054887;28;1902;-75
2022/08/31 07:10:57;;;;;;;;;;;;;;;;;;5055466;28;1563;-76
2022/08/31 07:13:24;;;;;;;;;;;;;;;;;;5073352;28;795;-77
2022/08/31 07:15:51;;;;;;;;;;;;;;;;;;5055926;28;1313;-75
2022/08/31 07:18:17;;;;;;;;;;;;;;;;;;5056349;28;1407;-75
2022/08/31 07:20:43;;;;;;;;;;;;;;;;;;5094910;28;1506;-75
2022/08/31 07:23:12;;;;;;;;;;;;;;;;;;5074849;28;1369;-76
2022/08/31 07:25:40;;;;;;;;;;;;;;;;;;5075176;28;1289;-75
2022/08/31 07:28:07;;;;;;;;;;;;;;;;;;5092977;28;1397;-74
2022/08/31 07:30:41;;;;;;;;;;;;;;;;;;5092734;28;1967;-74
2022/08/31 07:33:09;;;;;;;;;;;;;;;;;;5074673;28;1160;-75
2022/08/31 07:35:40;;;;;;;;;;;;;;;;;;5074502;28;1362;-74
2022/08/31 07:43:42;;;;;;;;;;;;;;;;;;5070863;28;1588;-71
2022/08/31 07:46:10;;;;;;;;;;;;;;;;;;5070727;28;1419;-72
2022/08/31 07:48:37;;;;;;;;;;;;;;;;;;5060254;28;1444;-71
2022/08/31 07:51:22;;;;;;;;;;;;;;;;;;5053972;28;1476;-71
2022/08/31 07:54:09;;;;;;;;;;;;;;;;;;5071712;28;1058;-72
2022/08/31 07:56:45;;;;;;;;;;;;;;;;;;5054049;28;2314;-73
2022/08/31 07:59:13;;;;;;;;;;;;;;;;;;5054047;28;1324;-71
2022/08/31 08:01:42;;;;;;;;;;;;;;;;;;5053516;28;930;-72
2022/08/31 08:04:12;;;;;;;;;;;;;;;;;;5054285;28;1202;-72
2022/08/31 08:07:04;;;;;;;;;;;;;;;;;;5072167;28;1123;-72
2022/08/31 08:09:49;;;;;;;;;;;;;;;;;;5071726;28;1906;-72
2022/08/31 08:12:35;;;;;;;;;;;;;;;;;;5071642;28;669;-72
2022/08/31 08:15:08;;;;;;;;;;;;;;;;;;5054177;28;1191;-72
2022/08/31 08:17:58;;;;;;;;;;;;;;;;;;5071469;28;1317;-73
2022/08/31 08:20:29;;;;;;;;;;;;;;;;;;5053840;28;1130;-72
2022/08/31 08:22:55;;;;;;;;;;;;;;;;;;5053625;28;1187;-72
2022/08/31 08:25:30;;;;;;;;;;;;;;;;;;5071694;28;905;-73
2022/08/31 08:28:18;;;;;;;;;;;;;;;;;;5053581;28;1471;-73
2022/08/31 08:30:46;;;;;;;;;;;;;;;;;;5071414;28;1969;-71
2022/08/31 08:33:14;;;;;;;;;;;;;;;;;;5053274;28;1339;-72
2022/08/31 08:35:41;;;;;;;;;;;;;;;;;;5053746;28;1624;-72
2022/08/31 08:38:08;;;;;;;;;;;;;;;;;;5053417;28;1387;-73
2022/08/31 08:40:40;;;;;;;;;;;;;;;;;;5053218;28;1460;-72
2022/08/31 08:43:06;;;;;;;;;;;;;;;;;;5053093;28;1368;-72
2022/08/31 08:45:32;;;;;;;;;;;;;;;;;;5053170;28;1306;-73
2022/08/31 08:48:00;;;;;;;;;;;;;;;;;;5061367;28;1404;-72
2022/08/31 08:50:28;;;;;;;;;;;;;;;;;;5073293;28;1895;-72
2022/08/31 08:52:56;;;;;;;;;;;;;;;;;;5073099;28;1117;-72
2022/08/31 08:55:26;;;;;;;;;;;;;;;;;;5068943;28;1930;-71
2022/08/31 08:57:54;;;;;;;;;;;;;;;;;;5068231;28;1459;-72
2022/08/31 09:00:23;;;;;;;;;;;;;;;;;;5053307;28;1157;-73
2022/08/31 09:02:56;;;;;;;;;;;;;;;;;;5069368;28;1391;-71
2022/08/31 09:05:38;;;;;;;;;;;;;;;;;;5069880;28;1371;-72
2022/08/31 09:08:27;;;;;;;;;;;;;;;;;;5052978;28;1382;-73
2022/08/31 09:10:58;;;;;;;;;;;;;;;;;;5076033;28;1914;-73
2022/08/31 09:13:29;;;;;;;;;;;;;;;;;;5083002;28;1353;-72
2022/08/31 09:16:03;;;;;;;;;;;;;;;;;;5073015;28;1313;-71
2022/08/31 09:18:35;;;;;;;;;;;;;;;;;;5083222;28;1742;-72
2022/08/31 09:21:16;;;;;;;;;;;;;;;;;;5070462;28;1352;-71
2022/08/31 09:23:48;;;;;;;;;;;;;;;;;;5086450;28;1434;-72
2022/08/31 09:26:15;;;;;;;;;;;;;;;;;;5071201;28;968;-71
2022/08/31 09:29:12;;;;;;;;;;;;;;;;;;5088991;28;1554;-71
2022/08/31 09:31:40;;;;;;;;;;;;;;;;;;5089828;28;1146;-71
2022/08/31 09:34:07;;;;;;;;;;;;;;;;;;5090387;28;1063;-72
2022/08/31 09:36:39;;;;;;;;;;;;;;;;;;5079798;28;1210;-72
2022/08/31 09:39:16;;;;;;;;;;;;;;;;;;5069670;28;1348;-72
2022/08/31 09:41:42;;;;;;;;;;;;;;;;;;5069568;28;1067;-73
2022/08/31 09:44:20;;;;;;;;;;;;;;;;;;5070204;28;921;-71
2022/08/31 09:46:47;;;;;;;;;;;;;;;;;;5070382;28;996;-72
2022/08/31 09:49:17;;;;;;;;;;;;;;;;;;5070799;28;1511;-72
2022/08/31 09:51:47;;;;;;;;;;;;;;;;;;5069918;28;1368;-72
2022/08/31 09:57:01;;;;;;;;;;;;;;;;;;5051972;28;965;-73
2022/08/31 09:59:35;;;;;;;;;;;;;;;;;;5051878;28;1325;-73
2022/08/31 10:02:01;;;;;;;;;;;;;;;;;;5069327;28;1114;-73
2022/08/31 10:04:28;;;;;;;;;;;;;;;;;;5069836;28;1118;-74
2022/08/31 10:06:57;;;;;;;;;;;;;;;;;;5051893;28;1355;-73
2022/08/31 10:09:26;;;;;;;;;;;;;;;;;;5071043;28;1914;-73
2022/08/31 10:11:53;;;;;;;;;;;;;;;;;;5073654;28;1206;-73
2022/08/31 10:14:21;;;;;;;;;;;;;;;;;;5094369;28;1051;-73
2022/08/31 10:16:51;;;;;;;;;;;;;;;;;;5093908;28;1075;-73
2022/08/31 10:19:18;;;;;;;;;;;;;;;;;;5094070;28;1341;-73
2022/08/31 10:21:50;;;;;;;;;;;;;;;;;;5093465;28;1114;-73
2022/08/31 10:24:27;;;;;;;;;;;;;;;;;;5094022;28;1115;-73
2022/08/31 10:26:55;;;;;;;;;;;;;;;;;;5085861;28;1711;-73
2022/08/31 10:29:24;;;;;;;;;;;;;;;;;;5069961;28;1753;-72
2022/08/31 10:31:51;;;;;;;;;;;;;;;;;;5077854;28;1914;-72
2022/08/31 10:37:06;;;;;;;;;;;;;;;;;;5073646;28;1011;-73
2022/08/31 10:39:35;;;;;;;;;;;;;;;;;;5073130;28;1300;-73
2022/08/31 10:42:04;;;;;;;;;;;;;;;;;;5072946;28;1000;-72
2022/08/31 10:44:31;;;;;;;;;;;;;;;;;;5074001;28;1407;-73
2022/08/31 10:47:04;;;;;;;;;;;;;;;;;;5078750;28;1561;-72
2022/08/31 10:49:31;;;;;;;;;;;;;;;;;;5064015;28;1598;-73
2022/08/31 10:52:01;;;;;;;;;;;;;;;;;;5081899;28;1960;-72
2022/08/31 10:54:28;;;;;;;;;;;;;;;;;;5083073;28;1585;-72
2022/08/31 10:56:58;;;;;;;;;;;;;;;;;;5076222;28;1181;-73
2022/08/31 10:59:26;;;;;;;;;;;;;;;;;;5072994;28;1448;-74
2022/08/31 11:01:55;;;;;;;;;;;;;;;;;;5072594;28;1130;-73
2022/08/31 11:04:28;;;;;;;;;;;;;;;;;;5081994;28;1451;-74
2022/08/31 11:06:55;;;;;;;;;;;;;;;;;;5076563;28;1182;-73
2022/08/31 11:09:22;;;;;;;;;;;;;;;;;;5072768;28;1388;-73
2022/08/31 11:11:50;;;;;;;;;;;;;;;;;;5072180;28;1913;-72
2022/08/31 11:14:25;;;;;;;;;;;;;;;;;;5072334;28;1063;-73
2022/08/31 11:16:55;;;;;;;;;;;;;;;;;;5084008;28;1737;-73
2022/08/31 11:19:31;;;;;;;;;;;;;;;;;;5071338;28;1420;-74
2022/08/31 11:22:06;;;;;;;;;;;;;;;;;;5053588;28;1425;-73
2022/08/31 11:24:36;;;;;;;;;;;;;;;;;;5071172;28;1123;-74
2022/08/31 11:27:03;;;;;;;;;;;;;;;;;;5076257;28;1479;-74
2022/08/31 11:29:33;;;;;;;;;;;;;;;;;;5077888;28;1387;-73
2022/08/31 11:32:00;;;;;;;;;;;;;;;;;;5080296;28;1977;-74
2022/08/31 11:34:27;;;;;;;;;;;;;;;;;;5086528;28;1282;-74
2022/08/31 11:36:54;;;;;;;;;;;;;;;;;;5072739;28;1294;-73
2022/08/31 11:39:40;;;;;;;;;;;;;;;;;;5092671;28;1454;-73
2022/08/31 11:42:10;;;;;;;;;;;;;;;;;;5080898;28;1418;-73
2022/08/31 11:44:53;;;;;;;;;;;;;;;;;;5074947;28;1411;-73
2022/08/31 11:47:36;;;;;;;;;;;;;;;;;;5081353;28;1569;-71
2022/08/31 11:50:04;;;;;;;;;;;;;;;;;;5056403;28;1910;-75
2022/08/31 11:52:37;;;;;;;;;;;;;;;;;;5053635;28;1105;-75
2022/08/31 11:55:13;;;;;;;;;;;;;;;;;;5077227;28;1423;-74
2022/08/31 11:58:00;;;;;;;;;;;;;;;;;;5084929;28;1480;-74
2022/08/31 12:00:35;;;;;;;;;;;;;;;;;;5084331;28;1154;-74
2022/08/31 12:03:03;;;;;;;;;;;;;;;;;;5090562;28;1381;-74
2022/08/31 12:05:46;;;;;;;;;;;;;;;;;;5081562;28;1552;-74
2022/08/31 12:08:14;;;;;;;;;;;;;;;;;;5072467;28;1427;-73
2022/08/31 12:10:42;;;;;;;;;;;;;;;;;;5070899;28;1969;-73
2022/08/31 12:13:17;;;;;;;;;;;;;;;;;;5052737;28;1230;-72
2022/08/31 12:15:59;;;;;;;;;;;;;;;;;;5081052;28;1660;-72
2022/08/31 12:18:31;;;;;;;;;;;;;;;;;;5062630;28;1483;-72
2022/08/31 12:23:44;;;;;;;;;;;;;;;;;;5065310;28;1453;-73
2022/08/31 12:26:25;;;;;;;;;;;;;;;;;;5070247;28;1226;-73
2022/08/31 12:28:55;;;;;;;;;;;;;;;;;;5068124;28;1333;-73
2022/08/31 12:31:21;;;;;;;;;;;;;;;;;;5070620;28;2000;-73
2022/08/31 12:33:54;;;;;;;;;;;;;;;;;;5076926;28;1536;-72
2022/08/31 12:36:24;;;;;;;;;;;;;;;;;;5080351;28;1645;-73
2022/08/31 12:39:03;;;;;;;;;;;;;;;;;;5086403;28;1357;-74
2022/08/31 12:41:29;;;;;;;;;;;;;;;;;;5082815;28;1398;-73
2022/08/31 12:43:56;;;;;;;;;;;;;;;;;;5077722;28;1418;-74
2022/08/31 12:46:29;;;;;;;;;;;;;;;;;;5059059;28;1451;-74
2022/08/31 12:49:06;;;;;;;;;;;;;;;;;;5060979;28;1526;-75
2022/08/31 12:51:36;;;;;;;;;;;;;;;;;;5076720;28;1910;-73
2022/08/31 12:54:26;;;;;;;;;;;;;;;;;;5085059;28;1993;-74
2022/08/31 12:56:54;;;;;;;;;;;;;;;;;;5060647;28;1294;-74
2022/08/31 12:59:22;;;;;;;;;;;;;;;;;;5079084;28;1458;-73
2022/08/31 13:01:49;;;;;;;;;;;;;;;;;;5069813;28;804;-74
2022/08/31 13:04:17;;;;;;;;;;;;;;;;;;5070660;28;1059;-74
2022/08/31 13:06:46;;;;;;;;;;;;;;;;;;5076506;28;1124;-74
2022/08/31 13:09:23;;;;;;;;;;;;;;;;;;5090690;28;1373;-73
2022/08/31 13:11:50;;;;;;;;;;;;;;;;;;5078057;28;1910;-74
2022/08/31 13:14:19;;;;;;;;;;;;;;;;;;5077649;28;1313;-73
2022/08/31 13:16:46;;;;;;;;;;;;;;;;;;5086311;28;1314;-74
2022/08/31 13:19:16;;;;;;;;;;;;;;;;;;5079513;28;1481;-74
2022/08/31 13:21:44;;;;;;;;;;;;;;;;;;5078278;28;1326;-74
2022/08/31 13:24:10;;;;;;;;;;;;;;;;;;5080152;28;1547;-73
2022/08/31 13:26:37;;;;;;;;;;;;;;;;;;5080443;28;1260;-73
2022/08/31 13:29:06;;;;;;;;;;;;;;;;;;5079106;28;1414;-74
2022/08/31 13:31:34;;;;;;;;;;;;;;;;;;5066330;28;1975;-74
2022/08/31 13:34:01;;;;;;;;;;;;;;;;;;5090321;28;1059;-75
2022/08/31 13:36:31;;;;;;;;;;;;;;;;;;5090706;28;1067;-75
2022/08/31 13:39:01;;;;;;;;;;;;;;;;;;5090001;28;1309;-75
2022/08/31 13:41:28;;;;;;;;;;;;;;;;;;5089980;28;1122;-74
2022/08/31 13:44:00;;;;;;;;;;;;;;;;;;5081478;28;1187;-74
2022/08/31 13:46:27;;;;;;;;;;;;;;;;;;5091553;28;1250;-74
2022/08/31 13:49:00;;;;;;;;;;;;;;;;;;5094442;28;1374;-74
2022/08/31 13:51:26;;;;;;;;;;;;;;;;;;5093738;28;1914;-75
2022/08/31 13:54:06;;;;;;;;;;;;;;;;;;5094443;28;1129;-75
2022/08/31 13:59:31;;;;;;;;;;;;;;;;;;5039702;28;1352;-75
2022/08/31 14:01:58;;;;;;;;;;;;;;;;;;5093798;28;1118;-74
2022/08/31 14:04:37;;;;;;;;;;;;;;;;;;5094071;28;1257;-76
2022/08/31 14:07:04;;;;;;;;;;;;;;;;;;5093426;28;1526;-75
2022/08/31 14:09:31;;;;;;;;;;;;;;;;;;5071025;28;1423;-75
2022/08/31 14:12:02;;;;;;;;;;;;;;;;;;5082239;28;1914;-75
2022/08/31 14:14:38;;;;;;;;;;;;;;;;;;5085182;28;1335;-75
2022/08/31 14:17:05;;;;;;;;;;;;;;;;;;5082719;28;1460;-75
2022/08/31 14:19:31;;;;;;;;;;;;;;;;;;5084997;28;1594;-75
2022/08/31 14:22:12;;;;;;;;;;;;;;;;;;5075867;28;1192;-75
2022/08/31 14:24:41;;;;;;;;;;;;;;;;;;5075548;28;1176;-75
2022/08/31 14:27:12;;;;;;;;;;;;;;;;;;5062977;28;1315;-74
2022/08/31 14:29:39;;;;;;;;;;;;;;;;;;5082100;28;1530;-74
2022/08/31 14:32:06;;;;;;;;;;;;;;;;;;5073394;28;1980;-74
2022/08/31 14:34:32;;;;;;;;;;;;;;;;;;5084657;28;1578;-75
2022/08/31 14:37:01;;;;;;;;;;;;;;;;;;5081597;28;1325;-74
2022/08/31 14:39:29;;;;;;;;;;;;;;;;;;5082826;28;1406;-75
2022/08/31 14:41:57;;;;;;;;;;;;;;;;;;5067657;28;1774;-75
2022/08/31 14:44:24;;;;;;;;;;;;;;;;;;5064029;28;1510;-74
2022/08/31 14:46:51;;;;;;;;;;;;;;;;;;5084418;28;1338;-75
2022/08/31 14:49:17;;;;;;;;;;;;;;;;;;5085096;28;1612;-74
2022/08/31 14:51:43;;;;;;;;;;;;;;;;;;5088329;28;2310;-76
2022/08/31 14:54:10;;;;;;;;;;;;;;;;;;5090820;28;1166;-74
2022/08/31 14:56:38;;;;;;;;;;;;;;;;;;5071458;28;1087;-74
2022/08/31 14:59:14;;;;;;;;;;;;;;;;;;5072736;28;1372;-75
2022/08/31 15:01:43;;;;;;;;;;;;;;;;;;5054170;28;1132;-73
2022/08/31 15:04:09;;;;;;;;;;;;;;;;;;5072454;28;961;-74
2022/08/31 15:06:35;;;;;;;;;;;;;;;;;;5072576;28;1106;-73
2022/08/31 15:09:03;;;;;;;;;;;;;;;;;;5072460;28;1295;-75
2022/08/31 15:11:36;;;;;;;;;;;;;;;;;;5071852;28;1910;-74
2022/08/31 15:14:03;;;;;;;;;;;;;;;;;;5072329;28;1056;-74
2022/08/31 15:16:31;;;;;;;;;;;;;;;;;;5071892;28;786;-74
2022/08/31 15:18:57;;;;;;;;;;;;;;;;;;5073434;28;1395;-75
2022/08/31 15:21:25;;;;;;;;;;;;;;;;;;5053957;28;1244;-73
2022/08/31 15:23:51;;;;;;;;;;;;;;;;;;5072159;28;1075;-75
2022/08/31 15:26:20;;;;;;;;;;;;;;;;;;5072146;28;834;-74
2022/08/31 15:28:51;;;;;;;;;;;;;;;;;;5075486;28;1479;-73
2022/08/31 15:31:19;;;;;;;;;;;;;;;;;;5073738;28;1918;-73
2022/08/31 15:33:48;;;;;;;;;;;;;;;;;;5092520;28;1043;-73
2022/08/31 15:36:15;;;;;;;;;;;;;;;;;;5073983;28;920;-73
2022/08/31 15:38:42;;;;;;;;;;;;;;;;;;5092315;28;1386;-73
2022/08/31 15:41:10;;;;;;;;;;;;;;;;;;5074014;28;934;-73
2022/08/31 15:43:40;;;;;;;;;;;;;;;;;;5091420;28;1135;-74
2022/08/31 15:46:07;;;;;;;;;;;;;;;;;;5069757;28;1442;-73
2022/08/31 15:48:41;;;;;;;;;;;;;;;;;;5079365;28;1415;-74
2022/08/31 15:51:13;;;;;;;;;;;;;;;;;;5078206;28;1452;-73
2022/08/31 15:53:41;;;;;;;;;;;;;;;;;;5078227;28;1395;-73
2022/08/31 15:56:08;;;;;;;;;;;;;;;;;;5081146;28;1217;-73
2022/08/31 15:58:37;;;;;;;;;;;;;;;;;;5071522;28;1262;-73
2022/08/31 16:01:04;;;;;;;;;;;;;;;;;;5076264;28;1706;-73
2022/08/31 16:03:30;;;;;;;;;;;;;;;;;;5079722;28;1400;-74
2022/08/31 16:05:57;;;;;;;;;;;;;;;;;;5073416;28;1153;-72
2022/08/31 16:08:27;;;;;;;;;;;;;;;;;;5058725;28;1412;-73
2022/08/31 16:10:53;;;;;;;;;;;;;;;;;;5086053;28;1434;-72
2022/08/31 16:13:19;;;;;;;;;;;;;;;;;;5077968;28;1977;-73
2022/08/31 16:15:49;;;;;;;;;;;;;;;;;;5073897;28;1470;-75
2022/08/31 16:18:16;;;;;;;;;;;;;;;;;;5078770;28;1438;-73
2022/08/31 16:20:47;;;;;;;;;;;;;;;;;;5070130;28;724;-72
2022/08/31 16:23:14;;;;;;;;;;;;;;;;;;5070261;28;814;-73
2022/08/31 16:25:45;;;;;;;;;;;;;;;;;;5070249;28;1079;-73
2022/08/31 16:28:11;;;;;;;;;;;;;;;;;;5052138;28;1424;-72
2022/08/31 16:30:39;;;;;;;;;;;;;;;;;;5075066;28;1478;-73
2022/08/31 16:33:05;;;;;;;;;;;;;;;;;;5079824;28;1973;-74
2022/08/31 16:35:31;;;;;;;;;;;;;;;;;;5069908;28;881;-74
2022/08/31 16:37:57;;;;;;;;;;;;;;;;;;5069793;28;1411;-73
2022/08/31 16:40:24;;;;;;;;;;;;;;;;;;5080762;28;1467;-71
2022/08/31 16:42:52;;;;;;;;;;;;;;;;;;5055751;28;1223;-73
2022/08/31 16:45:18;;;;;;;;;;;;;;;;;;5071763;28;1466;-72
2022/08/31 16:47:44;;;;;;;;;;;;;;;;;;5080665;28;1478;-74
2022/08/31 16:50:10;;;;;;;;;;;;;;;;;;5086143;28;2063;-74
2022/08/31 16:52:36;;;;;;;;;;;;;;;;;;5087274;28;2032;-72
2022/08/31 16:55:03;;;;;;;;;;;;;;;;;;5087948;28;1866;-72
2022/08/31 16:57:31;;;;;;;;;;;;;;;;;;5089579;28;1333;-73
2022/08/31 16:59:59;;;;;;;;;;;;;;;;;;5090055;28;1071;-73
2022/08/31 17:02:26;;;;;;;;;;;;;;;;;;5080650;28;1409;-71
2022/08/31 17:04:52;;;;;;;;;;;;;;;;;;5077794;28;1122;-73
2022/08/31 17:07:18;;;;;;;;;;;;;;;;;;5051537;28;1451;-73
2022/08/31 17:09:44;;;;;;;;;;;;;;;;;;5069654;28;1430;-74
2022/08/31 17:12:12;;;;;;;;;;;;;;;;;;5078699;28;1918;-74
2022/08/31 17:14:42;;;;;;;;;;;;;;;;;;5075348;28;1162;-74
2022/08/31 17:17:10;;;;;;;;;;;;;;;;;;5079643;28;1722;-74
2022/08/31 17:19:37;;;;;;;;;;;;;;;;;;5082478;28;1945;-75
2022/08/31 17:22:04;;;;;;;;;;;;;;;;;;5074249;28;1460;-71
2022/08/31 17:24:32;;;;;;;;;;;;;;;;;;5076447;28;1134;-74
2022/08/31 17:27:00;;;;;;;;;;;;;;;;;;5070221;28;1471;-74
2022/08/31 17:29:26;;;;;;;;;;;;;;;;;;5077593;28;1418;-75
2022/08/31 17:31:53;;;;;;;;;;;;;;;;;;5080762;28;1978;-74
2022/08/31 17:34:22;;;;;;;;;;;;;;;;;;5076666;28;1501;-74
2022/08/31 17:36:49;;;;;;;;;;;;;;;;;;5073911;28;1189;-75
2022/08/31 17:39:16;;;;;;;;;;;;;;;;;;5073329;28;1399;-75
2022/08/31 17:41:42;;;;;;;;;;;;;;;;;;5081115;28;1413;-74